sensor_id;sensor_type;location;lat;lon;timestamp;P1;durP1;ratioP1;P2;durP2;ratioP2
33740;SDS011;20065;48.380;10.892;2023-07-22T00:01:01;4.23;;;2.33;;
33740;SDS011;20065;48.380;10.892;2023-07-22T00:03:47;5.10;;;2.67;;
33740;SDS011;20065;48.380;10.892;2023-07-22T00:06:36;3.53;;;2.20;;
33740;SDS011;20065;48.380;10.892;2023-07-22T00:09:22;4.23;;;2.43;;
33740;SDS011;20065;48.380;10.892;2023-07-22T00:12:11;5.47;;;2.27;;
33740;SDS011;20065;48.380;10.892;2023-07-22T00:15:00;7.53;;;2.70;;
33740;SDS011;20065;48.380;10.892;2023-07-22T00:17:46;3.63;;;2.10;;
33740;SDS011;20065;48.380;10.892;2023-07-22T00:20:32;3.97;;;2.47;;
33740;SDS011;20065;48.380;10.892;2023-07-22T00:23:18;6.53;;;2.87;;
33740;SDS011;20065;48.380;10.892;2023-07-22T00:26:06;5.00;;;2.60;;
33740;SDS011;20065;48.380;10.892;2023-07-22T00:28:52;4.50;;;2.40;;
33740;SDS011;20065;48.380;10.892;2023-07-22T00:31:39;5.37;;;2.53;;
33740;SDS011;20065;48.380;10.892;2023-07-22T00:34:25;4.93;;;2.47;;
33740;SDS011;20065;48.380;10.892;2023-07-22T00:37:11;5.43;;;2.50;;
33740;SDS011;20065;48.380;10.892;2023-07-22T00:40:00;4.87;;;2.90;;
33740;SDS011;20065;48.380;10.892;2023-07-22T00:42:57;4.40;;;2.80;;
33740;SDS011;20065;48.380;10.892;2023-07-22T00:45:44;6.27;;;3.33;;
33740;SDS011;20065;48.380;10.892;2023-07-22T00:48:37;6.30;;;2.80;;
33740;SDS011;20065;48.380;10.892;2023-07-22T00:51:24;4.73;;;2.60;;
33740;SDS011;20065;48.380;10.892;2023-07-22T00:54:10;3.80;;;2.27;;
33740;SDS011;20065;48.380;10.892;2023-07-22T00:56:57;5.40;;;2.63;;
33740;SDS011;20065;48.380;10.892;2023-07-22T00:59:43;6.90;;;2.80;;
33740;SDS011;20065;48.380;10.892;2023-07-22T01:02:30;5.30;;;2.43;;
33740;SDS011;20065;48.380;10.892;2023-07-22T01:05:16;5.33;;;2.77;;
33740;SDS011;20065;48.380;10.892;2023-07-22T01:08:09;4.77;;;2.70;;
33740;SDS011;20065;48.380;10.892;2023-07-22T01:10:55;6.53;;;2.83;;
33740;SDS011;20065;48.380;10.892;2023-07-22T01:13:42;5.37;;;3.00;;
33740;SDS011;20065;48.380;10.892;2023-07-22T01:16:30;6.80;;;2.83;;
33740;SDS011;20065;48.380;10.892;2023-07-22T01:19:18;4.00;;;2.60;;
33740;SDS011;20065;48.380;10.892;2023-07-22T01:22:05;6.83;;;3.10;;
33740;SDS011;20065;48.380;10.892;2023-07-22T01:24:56;5.10;;;2.70;;
33740;SDS011;20065;48.380;10.892;2023-07-22T01:27:43;6.97;;;2.77;;
33740;SDS011;20065;48.380;10.892;2023-07-22T01:30:29;5.93;;;3.13;;
33740;SDS011;20065;48.380;10.892;2023-07-22T01:33:15;5.67;;;3.30;;
33740;SDS011;20065;48.380;10.892;2023-07-22T01:36:02;5.07;;;2.90;;
33740;SDS011;20065;48.380;10.892;2023-07-22T01:38:52;5.40;;;2.63;;
33740;SDS011;20065;48.380;10.892;2023-07-22T01:41:38;7.83;;;3.17;;
33740;SDS011;20065;48.380;10.892;2023-07-22T01:44:24;5.90;;;3.33;;
33740;SDS011;20065;48.380;10.892;2023-07-22T01:47:11;5.73;;;3.20;;
33740;SDS011;20065;48.380;10.892;2023-07-22T01:49:57;5.40;;;3.00;;
33740;SDS011;20065;48.380;10.892;2023-07-22T01:52:44;6.50;;;3.13;;
33740;SDS011;20065;48.380;10.892;2023-07-22T01:55:32;11.13;;;3.30;;
33740;SDS011;20065;48.380;10.892;2023-07-22T01:58:18;6.50;;;3.10;;
33740;SDS011;20065;48.380;10.892;2023-07-22T02:01:04;7.80;;;2.97;;
33740;SDS011;20065;48.380;10.892;2023-07-22T02:03:52;4.53;;;3.23;;
33740;SDS011;20065;48.380;10.892;2023-07-22T02:06:38;11.10;;;2.87;;
33740;SDS011;20065;48.380;10.892;2023-07-22T02:09:24;4.90;;;2.80;;
33740;SDS011;20065;48.380;10.892;2023-07-22T02:12:10;6.50;;;3.10;;
33740;SDS011;20065;48.380;10.892;2023-07-22T02:14:56;6.67;;;3.43;;
33740;SDS011;20065;48.380;10.892;2023-07-22T02:17:43;12.27;;;3.20;;
33740;SDS011;20065;48.380;10.892;2023-07-22T02:20:29;6.77;;;3.20;;
33740;SDS011;20065;48.380;10.892;2023-07-22T02:23:16;7.10;;;3.40;;
33740;SDS011;20065;48.380;10.892;2023-07-22T02:26:02;5.50;;;3.10;;
33740;SDS011;20065;48.380;10.892;2023-07-22T02:28:49;6.40;;;3.63;;
33740;SDS011;20065;48.380;10.892;2023-07-22T02:31:35;6.10;;;3.37;;
33740;SDS011;20065;48.380;10.892;2023-07-22T02:34:21;6.40;;;3.30;;
33740;SDS011;20065;48.380;10.892;2023-07-22T02:37:07;6.07;;;3.10;;
33740;SDS011;20065;48.380;10.892;2023-07-22T02:39:54;6.90;;;4.00;;
33740;SDS011;20065;48.380;10.892;2023-07-22T02:42:40;8.53;;;3.23;;
33740;SDS011;20065;48.380;10.892;2023-07-22T02:45:27;4.93;;;3.07;;
33740;SDS011;20065;48.380;10.892;2023-07-22T02:48:13;7.43;;;3.90;;
33740;SDS011;20065;48.380;10.892;2023-07-22T02:51:06;9.93;;;4.33;;
33740;SDS011;20065;48.380;10.892;2023-07-22T02:53:53;5.30;;;3.40;;
33740;SDS011;20065;48.380;10.892;2023-07-22T02:56:40;5.60;;;3.43;;
33740;SDS011;20065;48.380;10.892;2023-07-22T02:59:26;6.83;;;4.27;;
33740;SDS011;20065;48.380;10.892;2023-07-22T03:02:12;6.63;;;3.73;;
33740;SDS011;20065;48.380;10.892;2023-07-22T03:04:59;7.37;;;4.27;;
33740;SDS011;20065;48.380;10.892;2023-07-22T03:07:45;8.33;;;4.37;;
33740;SDS011;20065;48.380;10.892;2023-07-22T03:10:32;7.17;;;4.03;;
33740;SDS011;20065;48.380;10.892;2023-07-22T03:13:18;7.60;;;4.10;;
33740;SDS011;20065;48.380;10.892;2023-07-22T03:16:04;9.20;;;4.70;;
33740;SDS011;20065;48.380;10.892;2023-07-22T03:18:50;7.00;;;4.10;;
33740;SDS011;20065;48.380;10.892;2023-07-22T03:21:37;7.43;;;4.50;;
33740;SDS011;20065;48.380;10.892;2023-07-22T03:24:23;7.90;;;4.57;;
33740;SDS011;20065;48.380;10.892;2023-07-22T03:27:11;9.30;;;4.93;;
33740;SDS011;20065;48.380;10.892;2023-07-22T03:29:57;6.80;;;4.50;;
33740;SDS011;20065;48.380;10.892;2023-07-22T03:32:44;7.40;;;4.27;;
33740;SDS011;20065;48.380;10.892;2023-07-22T03:35:33;9.03;;;4.97;;
33740;SDS011;20065;48.380;10.892;2023-07-22T03:38:19;8.80;;;4.70;;
33740;SDS011;20065;48.380;10.892;2023-07-22T03:41:05;10.10;;;4.80;;
33740;SDS011;20065;48.380;10.892;2023-07-22T03:43:52;8.50;;;4.80;;
33740;SDS011;20065;48.380;10.892;2023-07-22T03:46:38;9.13;;;4.80;;
33740;SDS011;20065;48.380;10.892;2023-07-22T03:49:24;10.93;;;4.50;;
33740;SDS011;20065;48.380;10.892;2023-07-22T03:52:10;5.17;;;3.57;;
33740;SDS011;20065;48.380;10.892;2023-07-22T03:54:59;7.47;;;4.53;;
33740;SDS011;20065;48.380;10.892;2023-07-22T03:57:46;7.43;;;4.57;;
33740;SDS011;20065;48.380;10.892;2023-07-22T04:00:32;6.70;;;4.03;;
33740;SDS011;20065;48.380;10.892;2023-07-22T04:03:18;7.20;;;4.60;;
33740;SDS011;20065;48.380;10.892;2023-07-22T04:06:04;8.53;;;4.63;;
33740;SDS011;20065;48.380;10.892;2023-07-22T04:08:51;7.70;;;4.40;;
33740;SDS011;20065;48.380;10.892;2023-07-22T04:11:37;7.50;;;4.30;;
33740;SDS011;20065;48.380;10.892;2023-07-22T04:14:23;12.80;;;4.10;;
33740;SDS011;20065;48.380;10.892;2023-07-22T04:17:10;9.40;;;4.10;;
33740;SDS011;20065;48.380;10.892;2023-07-22T04:19:56;6.67;;;4.27;;
33740;SDS011;20065;48.380;10.892;2023-07-22T04:22:42;7.10;;;4.47;;
33740;SDS011;20065;48.380;10.892;2023-07-22T04:25:29;8.70;;;3.90;;
33740;SDS011;20065;48.380;10.892;2023-07-22T04:28:16;7.60;;;4.00;;
33740;SDS011;20065;48.380;10.892;2023-07-22T04:31:02;8.80;;;4.33;;
33740;SDS011;20065;48.380;10.892;2023-07-22T04:33:49;5.90;;;4.10;;
33740;SDS011;20065;48.380;10.892;2023-07-22T04:36:35;6.83;;;4.30;;
33740;SDS011;20065;48.380;10.892;2023-07-22T04:39:22;6.77;;;3.80;;
33740;SDS011;20065;48.380;10.892;2023-07-22T04:42:08;9.40;;;3.90;;
33740;SDS011;20065;48.380;10.892;2023-07-22T04:44:55;5.93;;;3.23;;
33740;SDS011;20065;48.380;10.892;2023-07-22T04:47:41;5.50;;;3.27;;
33740;SDS011;20065;48.380;10.892;2023-07-22T04:50:29;6.20;;;3.53;;
33740;SDS011;20065;48.380;10.892;2023-07-22T04:53:17;8.83;;;3.60;;
33740;SDS011;20065;48.380;10.892;2023-07-22T04:56:03;6.60;;;4.00;;
33740;SDS011;20065;48.380;10.892;2023-07-22T04:58:49;6.93;;;3.70;;
33740;SDS011;20065;48.380;10.892;2023-07-22T05:01:35;6.20;;;4.10;;
33740;SDS011;20065;48.380;10.892;2023-07-22T05:04:22;7.63;;;4.00;;
33740;SDS011;20065;48.380;10.892;2023-07-22T05:07:09;8.00;;;3.53;;
33740;SDS011;20065;48.380;10.892;2023-07-22T05:09:58;6.83;;;3.40;;
33740;SDS011;20065;48.380;10.892;2023-07-22T05:12:45;7.13;;;3.83;;
33740;SDS011;20065;48.380;10.892;2023-07-22T05:15:31;5.07;;;3.30;;
33740;SDS011;20065;48.380;10.892;2023-07-22T05:18:17;9.93;;;3.23;;
33740;SDS011;20065;48.380;10.892;2023-07-22T05:21:03;6.90;;;4.20;;
33740;SDS011;20065;48.380;10.892;2023-07-22T05:23:50;6.20;;;3.80;;
33740;SDS011;20065;48.380;10.892;2023-07-22T05:26:36;6.67;;;3.30;;
33740;SDS011;20065;48.380;10.892;2023-07-22T05:29:22;9.27;;;3.70;;
33740;SDS011;20065;48.380;10.892;2023-07-22T05:32:08;5.77;;;3.37;;
33740;SDS011;20065;48.380;10.892;2023-07-22T05:34:54;6.30;;;3.70;;
33740;SDS011;20065;48.380;10.892;2023-07-22T05:37:41;5.87;;;3.47;;
33740;SDS011;20065;48.380;10.892;2023-07-22T05:40:27;9.17;;;3.47;;
33740;SDS011;20065;48.380;10.892;2023-07-22T05:43:14;7.20;;;3.43;;
33740;SDS011;20065;48.380;10.892;2023-07-22T05:46:00;6.97;;;3.10;;
33740;SDS011;20065;48.380;10.892;2023-07-22T05:48:46;6.57;;;3.43;;
33740;SDS011;20065;48.380;10.892;2023-07-22T05:51:32;5.53;;;3.43;;
33740;SDS011;20065;48.380;10.892;2023-07-22T05:54:19;6.30;;;3.50;;
33740;SDS011;20065;48.380;10.892;2023-07-22T05:57:05;7.70;;;3.60;;
33740;SDS011;20065;48.380;10.892;2023-07-22T05:59:51;5.80;;;3.10;;
33740;SDS011;20065;48.380;10.892;2023-07-22T06:02:38;4.80;;;3.07;;
33740;SDS011;20065;48.380;10.892;2023-07-22T06:05:24;5.07;;;2.97;;
33740;SDS011;20065;48.380;10.892;2023-07-22T06:08:10;5.30;;;2.83;;
33740;SDS011;20065;48.380;10.892;2023-07-22T06:10:56;6.50;;;2.80;;
33740;SDS011;20065;48.380;10.892;2023-07-22T06:13:43;5.80;;;3.30;;
33740;SDS011;20065;48.380;10.892;2023-07-22T06:16:29;5.27;;;2.43;;
33740;SDS011;20065;48.380;10.892;2023-07-22T06:19:15;5.90;;;2.80;;
33740;SDS011;20065;48.380;10.892;2023-07-22T06:22:01;5.33;;;3.00;;
33740;SDS011;20065;48.380;10.892;2023-07-22T06:24:47;5.20;;;2.50;;
33740;SDS011;20065;48.380;10.892;2023-07-22T06:27:33;5.93;;;2.60;;
33740;SDS011;20065;48.380;10.892;2023-07-22T06:30:21;3.50;;;2.20;;
33740;SDS011;20065;48.380;10.892;2023-07-22T06:33:07;6.17;;;2.90;;
33740;SDS011;20065;48.380;10.892;2023-07-22T06:35:53;6.33;;;2.83;;
33740;SDS011;20065;48.380;10.892;2023-07-22T06:38:41;5.90;;;3.20;;
33740;SDS011;20065;48.380;10.892;2023-07-22T06:41:29;7.17;;;2.80;;
33740;SDS011;20065;48.380;10.892;2023-07-22T06:44:15;6.37;;;2.90;;
33740;SDS011;20065;48.380;10.892;2023-07-22T06:47:01;5.20;;;2.60;;
33740;SDS011;20065;48.380;10.892;2023-07-22T06:49:48;5.00;;;2.70;;
33740;SDS011;20065;48.380;10.892;2023-07-22T06:52:36;9.57;;;2.80;;
33740;SDS011;20065;48.380;10.892;2023-07-22T06:55:22;5.67;;;2.73;;
33740;SDS011;20065;48.380;10.892;2023-07-22T06:58:08;5.83;;;2.33;;
33740;SDS011;20065;48.380;10.892;2023-07-22T07:00:54;5.20;;;2.70;;
33740;SDS011;20065;48.380;10.892;2023-07-22T07:03:41;5.87;;;2.80;;
33740;SDS011;20065;48.380;10.892;2023-07-22T07:06:28;5.23;;;2.70;;
33740;SDS011;20065;48.380;10.892;2023-07-22T07:09:15;4.50;;;2.63;;
33740;SDS011;20065;48.380;10.892;2023-07-22T07:12:01;4.73;;;2.83;;
33740;SDS011;20065;48.380;10.892;2023-07-22T07:14:50;7.80;;;2.80;;
33740;SDS011;20065;48.380;10.892;2023-07-22T07:17:36;8.30;;;3.67;;
33740;SDS011;20065;48.380;10.892;2023-07-22T07:20:22;6.03;;;2.60;;
33740;SDS011;20065;48.380;10.892;2023-07-22T07:23:08;5.13;;;2.23;;
33740;SDS011;20065;48.380;10.892;2023-07-22T07:25:55;5.13;;;2.17;;
33740;SDS011;20065;48.380;10.892;2023-07-22T07:28:41;5.30;;;2.93;;
33740;SDS011;20065;48.380;10.892;2023-07-22T07:31:27;5.10;;;2.60;;
33740;SDS011;20065;48.380;10.892;2023-07-22T07:34:13;5.60;;;2.70;;
33740;SDS011;20065;48.380;10.892;2023-07-22T07:36:59;7.73;;;2.33;;
33740;SDS011;20065;48.380;10.892;2023-07-22T07:39:46;5.43;;;2.60;;
33740;SDS011;20065;48.380;10.892;2023-07-22T07:42:32;7.20;;;2.83;;
33740;SDS011;20065;48.380;10.892;2023-07-22T07:45:18;4.90;;;2.73;;
33740;SDS011;20065;48.380;10.892;2023-07-22T07:48:05;5.10;;;2.67;;
33740;SDS011;20065;48.380;10.892;2023-07-22T07:50:52;4.13;;;2.40;;
33740;SDS011;20065;48.380;10.892;2023-07-22T07:53:38;8.37;;;2.20;;
33740;SDS011;20065;48.380;10.892;2023-07-22T07:56:24;4.17;;;2.17;;
33740;SDS011;20065;48.380;10.892;2023-07-22T07:59:10;5.80;;;2.00;;
33740;SDS011;20065;48.380;10.892;2023-07-22T08:01:57;6.30;;;2.13;;
33740;SDS011;20065;48.380;10.892;2023-07-22T08:04:43;5.47;;;2.37;;
33740;SDS011;20065;48.380;10.892;2023-07-22T08:07:29;4.57;;;2.40;;
33740;SDS011;20065;48.380;10.892;2023-07-22T08:10:15;4.03;;;2.03;;
33740;SDS011;20065;48.380;10.892;2023-07-22T08:13:01;5.63;;;2.70;;
33740;SDS011;20065;48.380;10.892;2023-07-22T08:15:47;5.60;;;2.50;;
33740;SDS011;20065;48.380;10.892;2023-07-22T08:18:34;3.47;;;2.03;;
33740;SDS011;20065;48.380;10.892;2023-07-22T08:21:21;3.37;;;1.80;;
33740;SDS011;20065;48.380;10.892;2023-07-22T08:24:08;4.23;;;2.17;;
33740;SDS011;20065;48.380;10.892;2023-07-22T08:26:54;3.37;;;1.70;;
33740;SDS011;20065;48.380;10.892;2023-07-22T08:29:40;5.43;;;2.20;;
33740;SDS011;20065;48.380;10.892;2023-07-22T08:32:26;4.37;;;2.10;;
33740;SDS011;20065;48.380;10.892;2023-07-22T08:35:12;4.53;;;2.30;;
33740;SDS011;20065;48.380;10.892;2023-07-22T08:37:59;3.77;;;2.00;;
33740;SDS011;20065;48.380;10.892;2023-07-22T08:40:47;4.50;;;2.10;;
33740;SDS011;20065;48.380;10.892;2023-07-22T08:43:37;4.73;;;1.70;;
33740;SDS011;20065;48.380;10.892;2023-07-22T08:46:27;3.23;;;1.50;;
33740;SDS011;20065;48.380;10.892;2023-07-22T08:49:17;4.10;;;2.07;;
33740;SDS011;20065;48.380;10.892;2023-07-22T08:52:04;4.87;;;1.87;;
33740;SDS011;20065;48.380;10.892;2023-07-22T08:54:51;4.20;;;1.70;;
33740;SDS011;20065;48.380;10.892;2023-07-22T08:57:38;3.33;;;1.47;;
33740;SDS011;20065;48.380;10.892;2023-07-22T09:00:25;5.43;;;1.80;;
33740;SDS011;20065;48.380;10.892;2023-07-22T09:03:12;3.20;;;1.90;;
33740;SDS011;20065;48.380;10.892;2023-07-22T09:05:58;3.97;;;1.90;;
33740;SDS011;20065;48.380;10.892;2023-07-22T09:08:46;3.30;;;1.60;;
33740;SDS011;20065;48.380;10.892;2023-07-22T09:11:32;4.17;;;1.70;;
33740;SDS011;20065;48.380;10.892;2023-07-22T09:14:19;3.73;;;1.70;;
33740;SDS011;20065;48.380;10.892;2023-07-22T09:17:06;4.73;;;2.20;;
33740;SDS011;20065;48.380;10.892;2023-07-22T09:19:53;10.73;;;1.53;;
33740;SDS011;20065;48.380;10.892;2023-07-22T09:22:43;3.60;;;1.83;;
33740;SDS011;20065;48.380;10.892;2023-07-22T09:25:30;4.23;;;1.67;;
33740;SDS011;20065;48.380;10.892;2023-07-22T09:28:17;3.80;;;1.90;;
33740;SDS011;20065;48.380;10.892;2023-07-22T09:31:03;4.90;;;2.00;;
33740;SDS011;20065;48.380;10.892;2023-07-22T09:33:50;4.90;;;2.10;;
33740;SDS011;20065;48.380;10.892;2023-07-22T09:36:50;3.83;;;1.93;;
33740;SDS011;20065;48.380;10.892;2023-07-22T09:39:41;4.50;;;2.03;;
33740;SDS011;20065;48.380;10.892;2023-07-22T09:42:32;4.03;;;1.97;;
33740;SDS011;20065;48.380;10.892;2023-07-22T09:45:23;3.50;;;1.97;;
33740;SDS011;20065;48.380;10.892;2023-07-22T09:48:10;7.13;;;1.93;;
33740;SDS011;20065;48.380;10.892;2023-07-22T09:50:56;3.43;;;1.73;;
33740;SDS011;20065;48.380;10.892;2023-07-22T09:53:47;6.10;;;1.60;;
33740;SDS011;20065;48.380;10.892;2023-07-22T09:56:45;3.70;;;1.93;;
33740;SDS011;20065;48.380;10.892;2023-07-22T09:59:33;4.30;;;2.30;;
33740;SDS011;20065;48.380;10.892;2023-07-22T10:02:20;3.47;;;1.57;;
33740;SDS011;20065;48.380;10.892;2023-07-22T10:05:08;5.20;;;1.90;;
33740;SDS011;20065;48.380;10.892;2023-07-22T10:07:58;3.83;;;1.73;;
33740;SDS011;20065;48.380;10.892;2023-07-22T10:10:44;3.50;;;1.83;;
33740;SDS011;20065;48.380;10.892;2023-07-22T10:13:32;5.20;;;2.00;;
33740;SDS011;20065;48.380;10.892;2023-07-22T10:16:18;3.77;;;2.00;;
33740;SDS011;20065;48.380;10.892;2023-07-22T10:19:04;2.80;;;1.20;;
33740;SDS011;20065;48.380;10.892;2023-07-22T10:21:52;3.50;;;1.60;;
33740;SDS011;20065;48.380;10.892;2023-07-22T10:24:39;3.80;;;2.00;;
33740;SDS011;20065;48.380;10.892;2023-07-22T10:27:26;6.00;;;1.83;;
33740;SDS011;20065;48.380;10.892;2023-07-22T10:30:14;6.20;;;1.83;;
33740;SDS011;20065;48.380;10.892;2023-07-22T10:33:01;3.60;;;2.03;;
33740;SDS011;20065;48.380;10.892;2023-07-22T10:38:57;4.13;;;1.63;;
33740;SDS011;20065;48.380;10.892;2023-07-22T10:41:46;3.30;;;1.70;;
33740;SDS011;20065;48.380;10.892;2023-07-22T10:44:36;4.33;;;1.70;;
33740;SDS011;20065;48.380;10.892;2023-07-22T10:47:32;3.47;;;1.73;;
33740;SDS011;20065;48.380;10.892;2023-07-22T10:50:19;3.43;;;1.60;;
33740;SDS011;20065;48.380;10.892;2023-07-22T10:53:05;2.93;;;1.40;;
33740;SDS011;20065;48.380;10.892;2023-07-22T10:58:59;3.63;;;2.10;;
33740;SDS011;20065;48.380;10.892;2023-07-22T11:01:46;6.00;;;1.87;;
33740;SDS011;20065;48.380;10.892;2023-07-22T11:04:33;3.30;;;1.70;;
33740;SDS011;20065;48.380;10.892;2023-07-22T11:07:33;4.50;;;1.60;;
33740;SDS011;20065;48.380;10.892;2023-07-22T11:10:28;3.97;;;2.00;;
33740;SDS011;20065;48.380;10.892;2023-07-22T11:13:14;3.67;;;1.33;;
33740;SDS011;20065;48.380;10.892;2023-07-22T11:16:00;3.40;;;1.60;;
33740;SDS011;20065;48.380;10.892;2023-07-22T11:18:46;3.47;;;1.90;;
33740;SDS011;20065;48.380;10.892;2023-07-22T11:21:32;3.60;;;1.90;;
33740;SDS011;20065;48.380;10.892;2023-07-22T11:24:19;3.03;;;1.60;;
33740;SDS011;20065;48.380;10.892;2023-07-22T11:27:06;4.20;;;1.77;;
33740;SDS011;20065;48.380;10.892;2023-07-22T11:29:53;3.83;;;1.63;;
33740;SDS011;20065;48.380;10.892;2023-07-22T11:32:44;4.13;;;1.60;;
33740;SDS011;20065;48.380;10.892;2023-07-22T11:35:30;3.83;;;1.90;;
33740;SDS011;20065;48.380;10.892;2023-07-22T11:38:16;4.70;;;1.57;;
33740;SDS011;20065;48.380;10.892;2023-07-22T11:41:02;4.03;;;1.30;;
33740;SDS011;20065;48.380;10.892;2023-07-22T11:43:49;4.23;;;1.70;;
33740;SDS011;20065;48.380;10.892;2023-07-22T11:46:36;2.80;;;1.50;;
33740;SDS011;20065;48.380;10.892;2023-07-22T11:49:40;3.33;;;1.50;;
33740;SDS011;20065;48.380;10.892;2023-07-22T11:52:27;4.57;;;1.53;;
33740;SDS011;20065;48.380;10.892;2023-07-22T11:55:14;2.90;;;1.43;;
33740;SDS011;20065;48.380;10.892;2023-07-22T11:58:01;5.73;;;1.80;;
33740;SDS011;20065;48.380;10.892;2023-07-22T12:01:00;7.80;;;1.63;;
33740;SDS011;20065;48.380;10.892;2023-07-22T12:03:48;5.40;;;2.00;;
33740;SDS011;20065;48.380;10.892;2023-07-22T12:06:38;5.23;;;2.13;;
33740;SDS011;20065;48.380;10.892;2023-07-22T12:09:25;3.90;;;1.87;;
33740;SDS011;20065;48.380;10.892;2023-07-22T12:12:11;4.20;;;1.87;;
33740;SDS011;20065;48.380;10.892;2023-07-22T12:15:17;4.13;;;1.70;;
33740;SDS011;20065;48.380;10.892;2023-07-22T12:18:04;4.07;;;1.90;;
33740;SDS011;20065;48.380;10.892;2023-07-22T12:20:51;4.77;;;2.23;;
33740;SDS011;20065;48.380;10.892;2023-07-22T12:23:41;6.80;;;2.07;;
33740;SDS011;20065;48.380;10.892;2023-07-22T12:26:28;3.20;;;1.83;;
33740;SDS011;20065;48.380;10.892;2023-07-22T12:29:15;3.30;;;1.60;;
33740;SDS011;20065;48.380;10.892;2023-07-22T12:32:02;3.73;;;1.60;;
33740;SDS011;20065;48.380;10.892;2023-07-22T12:34:53;3.80;;;1.87;;
33740;SDS011;20065;48.380;10.892;2023-07-22T12:37:49;3.67;;;2.00;;
33740;SDS011;20065;48.380;10.892;2023-07-22T12:41:00;4.33;;;1.93;;
33740;SDS011;20065;48.380;10.892;2023-07-22T12:43:47;3.43;;;1.90;;
33740;SDS011;20065;48.380;10.892;2023-07-22T12:46:35;4.60;;;2.50;;
33740;SDS011;20065;48.380;10.892;2023-07-22T12:49:22;2.97;;;1.77;;
33740;SDS011;20065;48.380;10.892;2023-07-22T12:52:08;4.10;;;1.80;;
33740;SDS011;20065;48.380;10.892;2023-07-22T12:54:54;3.60;;;2.07;;
33740;SDS011;20065;48.380;10.892;2023-07-22T12:57:41;3.00;;;1.60;;
33740;SDS011;20065;48.380;10.892;2023-07-22T13:00:27;4.50;;;2.67;;
33740;SDS011;20065;48.380;10.892;2023-07-22T13:03:13;3.13;;;1.70;;
33740;SDS011;20065;48.380;10.892;2023-07-22T13:06:00;4.60;;;2.30;;
33740;SDS011;20065;48.380;10.892;2023-07-22T13:08:46;3.40;;;2.00;;
33740;SDS011;20065;48.380;10.892;2023-07-22T13:11:32;5.17;;;2.10;;
33740;SDS011;20065;48.380;10.892;2023-07-22T13:14:18;3.87;;;2.20;;
33740;SDS011;20065;48.380;10.892;2023-07-22T13:17:04;3.27;;;1.97;;
33740;SDS011;20065;48.380;10.892;2023-07-22T13:19:50;5.07;;;2.37;;
33740;SDS011;20065;48.380;10.892;2023-07-22T13:22:40;4.00;;;2.00;;
33740;SDS011;20065;48.380;10.892;2023-07-22T13:25:26;5.60;;;2.20;;
33740;SDS011;20065;48.380;10.892;2023-07-22T13:28:12;5.13;;;2.60;;
33740;SDS011;20065;48.380;10.892;2023-07-22T13:30:58;4.80;;;1.80;;
33740;SDS011;20065;48.380;10.892;2023-07-22T13:33:45;3.60;;;1.93;;
33740;SDS011;20065;48.380;10.892;2023-07-22T13:36:31;3.97;;;2.10;;
33740;SDS011;20065;48.380;10.892;2023-07-22T13:39:17;5.13;;;2.10;;
33740;SDS011;20065;48.380;10.892;2023-07-22T13:42:03;4.70;;;2.53;;
33740;SDS011;20065;48.380;10.892;2023-07-22T13:44:50;3.50;;;2.10;;
33740;SDS011;20065;48.380;10.892;2023-07-22T13:47:36;8.07;;;2.37;;
33740;SDS011;20065;48.380;10.892;2023-07-22T13:50:22;4.03;;;2.03;;
33740;SDS011;20065;48.380;10.892;2023-07-22T13:53:08;6.40;;;2.53;;
33740;SDS011;20065;48.380;10.892;2023-07-22T13:55:54;3.30;;;1.93;;
33740;SDS011;20065;48.380;10.892;2023-07-22T13:58:41;3.80;;;2.03;;
33740;SDS011;20065;48.380;10.892;2023-07-22T14:01:27;4.20;;;2.33;;
33740;SDS011;20065;48.380;10.892;2023-07-22T14:04:13;3.90;;;2.17;;
33740;SDS011;20065;48.380;10.892;2023-07-22T14:06:59;7.03;;;2.00;;
33740;SDS011;20065;48.380;10.892;2023-07-22T14:09:45;3.47;;;2.00;;
33740;SDS011;20065;48.380;10.892;2023-07-22T14:12:31;4.20;;;2.30;;
33740;SDS011;20065;48.380;10.892;2023-07-22T14:15:18;3.27;;;2.10;;
33740;SDS011;20065;48.380;10.892;2023-07-22T14:18:04;5.67;;;2.83;;
33740;SDS011;20065;48.380;10.892;2023-07-22T14:20:50;5.63;;;2.23;;
33740;SDS011;20065;48.380;10.892;2023-07-22T14:23:36;4.83;;;2.60;;
33740;SDS011;20065;48.380;10.892;2023-07-22T14:26:23;5.87;;;2.67;;
33740;SDS011;20065;48.380;10.892;2023-07-22T14:29:09;3.70;;;2.30;;
33740;SDS011;20065;48.380;10.892;2023-07-22T14:31:56;4.07;;;2.27;;
33740;SDS011;20065;48.380;10.892;2023-07-22T14:34:43;4.10;;;2.40;;
33740;SDS011;20065;48.380;10.892;2023-07-22T14:37:29;3.87;;;2.57;;
33740;SDS011;20065;48.380;10.892;2023-07-22T14:40:16;4.07;;;2.17;;
33740;SDS011;20065;48.380;10.892;2023-07-22T14:43:02;4.20;;;2.50;;
33740;SDS011;20065;48.380;10.892;2023-07-22T14:45:49;3.40;;;2.23;;
33740;SDS011;20065;48.380;10.892;2023-07-22T14:48:35;5.77;;;2.90;;
33740;SDS011;20065;48.380;10.892;2023-07-22T14:51:22;4.60;;;2.40;;
33740;SDS011;20065;48.380;10.892;2023-07-22T14:54:08;3.90;;;2.60;;
33740;SDS011;20065;48.380;10.892;2023-07-22T14:56:54;3.90;;;2.33;;
33740;SDS011;20065;48.380;10.892;2023-07-22T14:59:40;4.37;;;2.70;;
33740;SDS011;20065;48.380;10.892;2023-07-22T15:02:26;4.10;;;2.33;;
33740;SDS011;20065;48.380;10.892;2023-07-22T15:05:12;4.13;;;2.50;;
33740;SDS011;20065;48.380;10.892;2023-07-22T15:07:59;4.10;;;2.50;;
33740;SDS011;20065;48.380;10.892;2023-07-22T15:10:45;3.43;;;1.83;;
33740;SDS011;20065;48.380;10.892;2023-07-22T15:13:31;4.17;;;2.10;;
33740;SDS011;20065;48.380;10.892;2023-07-22T15:16:17;4.20;;;2.23;;
33740;SDS011;20065;48.380;10.892;2023-07-22T15:19:03;5.13;;;2.80;;
33740;SDS011;20065;48.380;10.892;2023-07-22T15:21:50;5.10;;;3.00;;
33740;SDS011;20065;48.380;10.892;2023-07-22T15:24:36;5.00;;;2.97;;
33740;SDS011;20065;48.380;10.892;2023-07-22T15:27:23;3.80;;;2.33;;
33740;SDS011;20065;48.380;10.892;2023-07-22T15:30:09;4.80;;;2.97;;
33740;SDS011;20065;48.380;10.892;2023-07-22T15:32:56;5.30;;;2.87;;
33740;SDS011;20065;48.380;10.892;2023-07-22T15:35:42;4.30;;;2.30;;
33740;SDS011;20065;48.380;10.892;2023-07-22T15:38:28;4.83;;;2.43;;
33740;SDS011;20065;48.380;10.892;2023-07-22T15:41:14;4.20;;;2.70;;
33740;SDS011;20065;48.380;10.892;2023-07-22T15:44:00;5.23;;;2.60;;
33740;SDS011;20065;48.380;10.892;2023-07-22T15:46:46;4.80;;;2.80;;
33740;SDS011;20065;48.380;10.892;2023-07-22T15:49:32;4.43;;;2.53;;
33740;SDS011;20065;48.380;10.892;2023-07-22T15:52:18;5.17;;;2.67;;
33740;SDS011;20065;48.380;10.892;2023-07-22T15:55:05;6.23;;;3.03;;
33740;SDS011;20065;48.380;10.892;2023-07-22T15:57:52;5.10;;;3.03;;
33740;SDS011;20065;48.380;10.892;2023-07-22T16:00:38;4.20;;;2.57;;
33740;SDS011;20065;48.380;10.892;2023-07-22T16:03:24;5.70;;;3.07;;
33740;SDS011;20065;48.380;10.892;2023-07-22T16:06:11;5.10;;;3.03;;
33740;SDS011;20065;48.380;10.892;2023-07-22T16:08:57;5.20;;;2.50;;
33740;SDS011;20065;48.380;10.892;2023-07-22T16:11:43;4.97;;;3.20;;
33740;SDS011;20065;48.380;10.892;2023-07-22T16:14:29;4.67;;;3.47;;
33740;SDS011;20065;48.380;10.892;2023-07-22T16:17:15;6.60;;;3.80;;
33740;SDS011;20065;48.380;10.892;2023-07-22T16:20:01;6.33;;;3.37;;
33740;SDS011;20065;48.380;10.892;2023-07-22T16:22:48;6.10;;;3.53;;
33740;SDS011;20065;48.380;10.892;2023-07-22T16:25:34;6.13;;;3.30;;
33740;SDS011;20065;48.380;10.892;2023-07-22T16:28:20;5.10;;;3.20;;
33740;SDS011;20065;48.380;10.892;2023-07-22T16:31:06;6.27;;;2.90;;
33740;SDS011;20065;48.380;10.892;2023-07-22T16:33:53;5.57;;;2.93;;
33740;SDS011;20065;48.380;10.892;2023-07-22T16:36:41;3.90;;;2.50;;